createdAt,value
2023-08-14T00:01:37.825Z,18.24
2023-08-14T00:04:06.230Z,18.23
2023-08-14T00:06:34.679Z,18.22
2023-08-14T00:09:03.824Z,18.21
2023-08-14T00:11:32.227Z,18.19
2023-08-14T00:14:01.064Z,18.16
2023-08-14T00:16:29.180Z,18.14
2023-08-14T00:18:57.196Z,18.11
2023-08-14T00:21:25.360Z,18.08
2023-08-14T00:23:53.467Z,18.05
2023-08-14T00:26:21.758Z,18.02
2023-08-14T00:28:50.031Z,17.97
2023-08-14T00:31:18.417Z,17.89
2023-08-14T00:33:46.727Z,17.83
2023-08-14T00:36:14.824Z,17.79
2023-08-14T00:38:42.913Z,17.74
2023-08-14T00:41:12.084Z,17.64
2023-08-14T00:43:40.361Z,17.61
2023-08-14T00:46:08.820Z,17.60
2023-08-14T00:48:38.575Z,17.59
2023-08-14T00:51:06.754Z,17.59
2023-08-14T00:53:34.927Z,17.57
2023-08-14T00:56:04.275Z,17.54
2023-08-14T00:58:32.603Z,17.52
2023-08-14T01:01:01.424Z,17.50
2023-08-14T01:03:30.057Z,17.47
2023-08-14T01:05:58.309Z,17.45
2023-08-14T01:08:26.495Z,17.43
2023-08-14T01:11:37.403Z,17.39
2023-08-14T01:14:24.499Z,17.35
2023-08-14T01:16:59.769Z,17.31
2023-08-14T01:19:37.935Z,17.28
2023-08-14T01:22:26.400Z,17.24
2023-08-14T01:24:54.358Z,17.18
2023-08-14T01:27:23.834Z,17.10
2023-08-14T01:29:58.178Z,17.04
2023-08-14T01:32:26.467Z,16.99
2023-08-14T01:34:56.588Z,16.96
2023-08-14T01:37:24.644Z,16.93
2023-08-14T01:40:04.837Z,16.90
2023-08-14T01:42:39.226Z,16.88
2023-08-14T01:45:18.424Z,16.87
2023-08-14T01:47:49.402Z,16.86
2023-08-14T01:50:19.322Z,16.84
2023-08-14T01:52:47.673Z,16.83
2023-08-14T01:55:16.270Z,16.79
2023-08-14T01:57:44.198Z,16.76
2023-08-14T02:00:12.730Z,16.75
2023-08-14T02:02:40.799Z,16.76
2023-08-14T02:05:09.148Z,16.77
2023-08-14T02:07:37.164Z,16.77
2023-08-14T02:10:05.695Z,16.75
2023-08-14T02:12:33.738Z,16.74
2023-08-14T02:15:04.706Z,16.75
2023-08-14T02:17:32.771Z,16.75
2023-08-14T02:20:00.826Z,16.75
2023-08-14T02:22:29.240Z,16.73
2023-08-14T02:24:57.311Z,16.71
2023-08-14T02:27:25.403Z,16.72
2023-08-14T02:29:53.512Z,16.74
2023-08-14T02:32:21.620Z,16.75
2023-08-14T02:34:51.384Z,16.73
2023-08-14T02:37:19.867Z,16.72
2023-08-14T02:39:49.180Z,16.70
2023-08-14T02:42:18.728Z,16.68
2023-08-14T02:44:49.169Z,16.65
2023-08-14T02:47:17.953Z,16.63
2023-08-14T02:49:45.917Z,16.64
2023-08-14T02:52:13.902Z,16.65
2023-08-14T02:54:41.990Z,16.63
2023-08-14T02:57:10.108Z,16.59
2023-08-14T02:59:38.195Z,16.56
2023-08-14T03:02:06.489Z,16.54
2023-08-14T03:04:35.097Z,16.51
2023-08-14T03:07:04.123Z,16.52
2023-08-14T03:09:32.274Z,16.55
2023-08-14T03:12:00.306Z,16.56
2023-08-14T03:14:28.620Z,16.56
2023-08-14T03:16:56.781Z,16.59
2023-08-14T03:19:25.157Z,16.59
2023-08-14T03:21:53.949Z,16.58
2023-08-14T03:24:22.451Z,16.57
2023-08-14T03:26:50.507Z,16.57
2023-08-14T03:29:19.507Z,16.58
2023-08-14T03:31:47.747Z,16.60
2023-08-14T03:34:15.889Z,16.58
2023-08-14T03:36:44.789Z,16.57
2023-08-14T03:39:14.416Z,16.56
2023-08-14T03:41:42.702Z,16.54
2023-08-14T03:44:10.740Z,16.54
2023-08-14T03:46:40.237Z,16.51
2023-08-14T03:49:09.511Z,16.50
2023-08-14T03:51:38.394Z,16.53
2023-08-14T03:54:07.631Z,16.55
2023-08-14T03:56:35.782Z,16.57
2023-08-14T03:59:06.029Z,16.57
2023-08-14T04:02:49.727Z,16.55
2023-08-14T04:05:18.496Z,16.54
2023-08-14T04:07:47.430Z,16.55
2023-08-14T04:10:15.458Z,16.58
2023-08-14T04:12:44.720Z,16.60
2023-08-14T04:15:16.424Z,16.63
2023-08-14T04:17:45.637Z,16.67
2023-08-14T04:20:14.250Z,16.69
2023-08-14T04:22:42.680Z,16.71
2023-08-14T04:25:11.012Z,16.75
2023-08-14T04:27:39.766Z,16.80
2023-08-14T04:34:37.362Z,17.19
2023-08-14T04:37:06.373Z,17.40
2023-08-14T04:39:36.220Z,17.68
2023-08-14T04:42:04.385Z,18.11
2023-08-14T04:44:32.506Z,18.67
2023-08-14T04:47:00.916Z,19.22
2023-08-14T04:49:31.027Z,19.87
2023-08-14T04:51:58.995Z,20.66
2023-08-14T04:54:28.380Z,21.48
2023-08-14T04:56:56.604Z,22.63
2023-08-14T04:59:24.719Z,24.00
2023-08-14T05:01:55.280Z,25.30
2023-08-14T05:04:24.640Z,26.55
2023-08-14T05:06:53.104Z,27.75
2023-08-14T05:09:27.118Z,28.88
2023-08-14T05:11:57.453Z,29.47
2023-08-14T05:14:25.429Z,29.48
2023-08-14T05:16:53.554Z,29.18
2023-08-14T05:19:21.594Z,28.78
2023-08-14T05:21:49.873Z,28.45
2023-08-14T05:24:17.962Z,28.15
2023-08-14T05:26:45.897Z,27.90
2023-08-14T05:29:13.989Z,27.74
2023-08-14T05:31:41.981Z,27.74
2023-08-14T05:34:10.210Z,27.83
2023-08-14T05:36:38.214Z,27.87
2023-08-14T05:39:07.160Z,27.78
2023-08-14T05:41:35.376Z,27.64
2023-08-14T05:44:03.469Z,27.58
2023-08-14T05:46:31.822Z,27.56
2023-08-14T05:48:59.781Z,27.68
2023-08-14T05:51:27.838Z,27.86
2023-08-14T05:53:56.005Z,27.92
2023-08-14T05:56:24.008Z,28.07
2023-08-14T05:58:52.045Z,28.33
2023-08-14T06:01:19.976Z,28.55
2023-08-14T06:03:48.099Z,28.73
2023-08-14T06:06:16.225Z,28.98
2023-08-14T06:08:44.238Z,29.26
2023-08-14T06:11:12.098Z,29.44
2023-08-14T06:13:40.239Z,29.62
2023-08-14T06:16:08.611Z,29.83
2023-08-14T06:18:37.695Z,29.76
2023-08-14T06:21:06.389Z,29.69
2023-08-14T06:23:35.722Z,29.57
2023-08-14T06:26:05.203Z,29.37
2023-08-14T06:28:33.296Z,29.04
2023-08-14T06:31:03.372Z,28.94
2023-08-14T06:33:32.061Z,28.84
2023-08-14T06:36:00.308Z,28.76
2023-08-14T06:38:28.575Z,28.59
2023-08-14T06:40:56.573Z,28.45
2023-08-14T06:43:24.661Z,28.19
2023-08-14T06:45:52.708Z,27.88
2023-08-14T06:48:21.068Z,27.70
2023-08-14T06:50:49.034Z,27.57
2023-08-14T06:53:17.030Z,27.31
2023-08-14T06:55:48.477Z,27.10
2023-08-14T06:58:16.576Z,27.17
2023-08-14T07:00:47.479Z,27.41
2023-08-14T07:03:15.798Z,27.64
2023-08-14T07:05:43.772Z,28.03
2023-08-14T07:08:11.647Z,28.58
2023-08-14T07:10:39.966Z,29.00
2023-08-14T07:13:32.621Z,29.23
2023-08-14T07:16:00.859Z,29.43
2023-08-14T07:18:29.476Z,29.64
2023-08-14T07:20:59.361Z,29.86
2023-08-14T07:23:27.308Z,29.59
2023-08-14T07:25:56.703Z,29.25
2023-08-14T07:28:24.934Z,28.94
2023-08-14T07:30:53.038Z,28.67
2023-08-14T07:33:20.922Z,28.39
2023-08-14T07:35:48.916Z,28.29
2023-08-14T07:38:16.853Z,28.58
2023-08-14T07:40:46.122Z,28.94
2023-08-14T07:43:14.237Z,28.85
2023-08-14T07:45:42.560Z,28.65
2023-08-14T07:48:10.917Z,28.48
2023-08-14T07:50:38.969Z,28.24
2023-08-14T07:53:07.309Z,27.83
2023-08-14T07:55:35.359Z,27.40
2023-08-14T07:58:03.410Z,26.97
2023-08-14T08:00:32.521Z,26.60
2023-08-14T08:03:00.545Z,26.32
2023-08-14T08:05:28.980Z,26.14
2023-08-14T08:07:57.339Z,26.02
2023-08-14T08:10:25.464Z,25.89
2023-08-14T08:12:53.598Z,25.85
2023-08-14T08:15:21.625Z,25.79
2023-08-14T08:17:49.795Z,25.71
2023-08-14T08:20:17.864Z,25.71
2023-08-14T08:22:46.102Z,25.79
2023-08-14T08:25:14.198Z,25.90
2023-08-14T08:27:42.197Z,25.98
2023-08-14T08:30:10.651Z,25.98
2023-08-14T08:32:39.380Z,25.97
2023-08-14T08:35:08.069Z,25.95
2023-08-14T08:37:36.087Z,25.96
2023-08-14T08:40:06.288Z,26.00
2023-08-14T08:42:34.436Z,26.04
2023-08-14T08:45:05.419Z,26.05
2023-08-14T08:47:37.266Z,26.02
2023-08-14T08:50:08.772Z,26.18
2023-08-14T08:52:38.150Z,26.46
2023-08-14T08:55:08.704Z,26.58
2023-08-14T08:57:39.597Z,26.60
2023-08-14T09:00:08.817Z,26.59
2023-08-14T09:02:37.639Z,26.79
2023-08-14T09:05:06.671Z,27.07
2023-08-14T09:07:35.297Z,27.24
2023-08-14T09:10:03.694Z,27.28
2023-08-14T09:12:32.005Z,27.28
2023-08-14T09:15:02.638Z,27.27
2023-08-14T09:17:30.835Z,27.22
2023-08-14T09:20:00.257Z,27.18
2023-08-14T09:22:29.048Z,27.13
2023-08-14T09:24:58.033Z,27.05
2023-08-14T09:27:27.733Z,26.96
2023-08-14T09:29:56.452Z,26.79
2023-08-14T09:32:25.836Z,26.58
2023-08-14T09:35:00.320Z,26.44
2023-08-14T09:37:28.440Z,26.34
2023-08-14T09:40:16.615Z,26.36
2023-08-14T09:42:45.841Z,26.40
2023-08-14T09:45:15.086Z,26.58
2023-08-14T09:47:45.575Z,26.92
2023-08-14T09:50:15.060Z,27.25
2023-08-14T09:52:46.720Z,27.59
2023-08-14T09:55:15.463Z,27.84
2023-08-14T09:57:43.588Z,28.07
2023-08-14T10:00:13.878Z,28.36
2023-08-14T10:02:42.264Z,28.64
2023-08-14T10:05:10.848Z,28.85
2023-08-14T10:07:40.333Z,29.09
2023-08-14T10:10:09.446Z,29.27
2023-08-14T10:12:47.601Z,29.45
2023-08-14T10:15:18.170Z,29.67
2023-08-14T10:17:56.511Z,29.79
2023-08-14T10:20:24.831Z,29.91
2023-08-14T10:22:56.719Z,30.04
2023-08-14T10:25:25.059Z,30.23
2023-08-14T10:27:53.450Z,30.45
2023-08-14T10:30:25.342Z,30.59
2023-08-14T10:32:53.652Z,30.73
2023-08-14T10:35:22.253Z,30.69
2023-08-14T10:38:00.801Z,30.60
2023-08-14T10:40:37.582Z,30.63
2023-08-14T10:43:08.272Z,30.72
2023-08-14T10:45:36.385Z,30.64
2023-08-14T10:48:09.526Z,30.53
2023-08-14T10:50:39.275Z,30.61
2023-08-14T10:53:07.777Z,30.65
2023-08-14T10:55:41.015Z,30.59
2023-08-14T10:58:28.074Z,30.63
2023-08-14T11:04:38.508Z,30.70
2023-08-14T11:07:10.405Z,30.58
2023-08-14T11:09:39.815Z,30.50
2023-08-14T11:12:09.660Z,30.38
2023-08-14T11:14:40.926Z,30.23
2023-08-14T11:17:11.808Z,30.17
2023-08-14T11:19:40.448Z,30.30
2023-08-14T11:22:09.226Z,30.54
2023-08-14T11:24:39.316Z,30.74
2023-08-14T11:27:07.649Z,30.79
2023-08-14T11:29:45.014Z,30.84
2023-08-14T11:32:23.710Z,30.93
2023-08-14T11:34:53.120Z,31.10
2023-08-14T11:37:21.326Z,31.30
2023-08-14T11:39:50.477Z,31.44
2023-08-14T11:42:19.106Z,31.38
2023-08-14T11:44:47.733Z,31.34
2023-08-14T11:47:18.316Z,31.38
2023-08-14T11:49:46.438Z,31.41
2023-08-14T11:52:14.638Z,31.47
2023-08-14T11:54:46.131Z,31.54
2023-08-14T11:57:14.980Z,31.41
2023-08-14T11:59:45.585Z,31.24
2023-08-14T12:02:13.498Z,31.07
2023-08-14T12:04:42.141Z,30.85
2023-08-14T12:07:10.603Z,30.73
2023-08-14T12:09:39.470Z,30.78
2023-08-14T12:12:07.774Z,30.89
2023-08-14T12:14:41.708Z,31.02
2023-08-14T12:17:16.972Z,31.21
2023-08-14T12:19:54.229Z,31.40
2023-08-14T12:22:23.998Z,31.51
2023-08-14T12:24:53.014Z,31.57
2023-08-14T12:27:24.300Z,31.50
2023-08-14T12:29:53.767Z,31.47
2023-08-14T12:32:23.812Z,31.47
2023-08-14T12:34:53.595Z,31.33
2023-08-14T12:37:22.144Z,31.19
2023-08-14T12:39:55.600Z,31.14
2023-08-14T12:42:23.765Z,31.11
2023-08-14T12:44:54.372Z,31.00
2023-08-14T12:47:23.029Z,30.88
2023-08-14T12:49:51.566Z,30.80
2023-08-14T12:52:19.728Z,30.82
2023-08-14T12:55:04.439Z,30.91
2023-08-14T12:57:34.430Z,30.95
2023-08-14T13:00:03.807Z,31.03
2023-08-14T13:02:35.259Z,31.10
2023-08-14T13:05:05.223Z,31.06
2023-08-14T13:07:34.230Z,31.04
2023-08-14T13:10:03.123Z,30.99
2023-08-14T13:12:31.423Z,30.98
2023-08-14T13:14:59.598Z,30.99
2023-08-14T13:17:28.500Z,31.05
2023-08-14T13:19:56.743Z,31.11
2023-08-14T13:22:25.072Z,31.10
2023-08-14T13:24:55.124Z,31.13
2023-08-14T13:27:23.554Z,31.15
2023-08-14T13:29:52.080Z,31.17
2023-08-14T13:32:20.610Z,31.22
2023-08-14T13:34:50.628Z,31.23
2023-08-14T13:37:18.901Z,31.28
2023-08-14T13:39:48.302Z,31.34
2023-08-14T13:42:16.300Z,31.37
2023-08-14T13:44:44.967Z,31.39
2023-08-14T13:47:12.935Z,31.33
2023-08-14T13:49:41.014Z,31.22
2023-08-14T13:52:08.988Z,31.15
2023-08-14T13:54:38.005Z,31.14
2023-08-14T13:57:06.497Z,31.15
2023-08-14T13:59:34.561Z,31.17
2023-08-14T14:02:04.011Z,31.21
2023-08-14T14:04:32.281Z,31.24
2023-08-14T14:07:00.203Z,31.25
2023-08-14T14:09:28.345Z,31.25
2023-08-14T14:11:56.280Z,31.24
2023-08-14T14:14:24.235Z,31.20
2023-08-14T14:16:56.090Z,31.15
2023-08-14T14:19:25.690Z,31.07
2023-08-14T14:21:55.920Z,31.00
2023-08-14T14:24:25.507Z,30.99
2023-08-14T14:26:53.931Z,30.99
2023-08-14T14:29:22.111Z,31.00
2023-08-14T14:31:50.081Z,30.96
2023-08-14T14:34:18.731Z,30.93
2023-08-14T14:36:46.957Z,30.92
2023-08-14T14:39:19.628Z,30.89
2023-08-14T14:41:48.937Z,30.85
2023-08-14T14:44:17.021Z,30.81
2023-08-14T14:46:45.361Z,30.77
2023-08-14T14:49:13.361Z,30.76
2023-08-14T14:51:41.292Z,30.76
2023-08-14T14:54:09.345Z,30.72
2023-08-14T14:56:38.445Z,30.70
2023-08-14T14:59:06.713Z,30.72
2023-08-14T15:01:34.716Z,30.72
2023-08-14T15:04:04.291Z,30.67
2023-08-14T15:06:32.531Z,30.59
2023-08-14T15:09:00.626Z,30.56
2023-08-14T15:11:28.695Z,30.53
2023-08-14T15:13:56.818Z,30.48
2023-08-14T15:16:25.157Z,30.44
2023-08-14T15:18:53.041Z,30.42
2023-08-14T15:21:21.093Z,30.42
2023-08-14T15:23:49.064Z,30.43
2023-08-14T15:26:17.167Z,30.42
2023-08-14T15:28:45.378Z,30.35
2023-08-14T15:31:16.236Z,30.32
2023-08-14T15:33:44.185Z,30.32
2023-08-14T15:36:12.169Z,30.31
2023-08-14T15:38:40.312Z,30.31
2023-08-14T15:41:11.950Z,30.32
2023-08-14T15:43:42.116Z,30.33
2023-08-14T15:46:10.206Z,30.32
2023-08-14T15:48:41.263Z,30.29
2023-08-14T15:51:09.295Z,30.29
2023-08-14T15:53:37.167Z,30.27
2023-08-14T15:56:05.183Z,30.22
2023-08-14T15:58:33.092Z,30.19
2023-08-14T16:01:01.060Z,30.18
2023-08-14T16:03:29.176Z,30.21
2023-08-14T16:05:58.750Z,30.23
2023-08-14T16:08:26.939Z,30.23
2023-08-14T16:10:54.868Z,30.21
2023-08-14T16:13:23.151Z,30.18
2023-08-14T16:15:51.168Z,30.14
2023-08-14T16:18:19.086Z,30.09
2023-08-14T16:20:47.126Z,30.02
2023-08-14T16:23:17.155Z,29.95
2023-08-14T16:25:45.205Z,29.90
2023-08-14T16:28:13.291Z,29.83
2023-08-14T16:30:41.711Z,29.76
2023-08-14T16:33:10.439Z,29.72
2023-08-14T16:35:39.540Z,29.71
2023-08-14T16:38:07.679Z,29.71
2023-08-14T16:40:42.819Z,29.72
2023-08-14T16:43:11.534Z,29.71
2023-08-14T16:45:40.893Z,29.70
2023-08-14T16:48:11.289Z,29.68
2023-08-14T16:50:40.503Z,29.66
2023-08-14T16:53:09.948Z,29.63
2023-08-14T16:55:38.371Z,29.58
2023-08-14T16:58:06.424Z,29.54
2023-08-14T17:00:34.517Z,29.50
2023-08-14T17:03:05.704Z,29.46
2023-08-14T17:05:33.844Z,29.43
2023-08-14T17:08:03.138Z,29.38
2023-08-14T17:10:33.171Z,29.34
2023-08-14T17:13:02.530Z,29.29
2023-08-14T17:15:41.521Z,29.24
2023-08-14T17:18:09.561Z,29.16
2023-08-14T17:20:44.532Z,29.08
2023-08-14T17:23:13.191Z,28.99
2023-08-14T17:25:41.405Z,28.91
2023-08-14T17:28:09.349Z,28.81
2023-08-14T17:30:40.634Z,28.69
2023-08-14T17:33:08.606Z,28.58
2023-08-14T17:35:36.706Z,28.47
2023-08-14T17:38:05.001Z,28.36
2023-08-14T17:40:33.709Z,28.28
2023-08-14T17:43:02.040Z,28.17
2023-08-14T17:45:30.944Z,28.06
2023-08-14T17:47:59.660Z,27.95
2023-08-14T17:50:29.391Z,27.84
2023-08-14T17:52:57.716Z,27.73
2023-08-14T17:55:25.679Z,27.59
2023-08-14T17:57:53.756Z,27.43
2023-08-14T18:00:22.982Z,27.23
2023-08-14T18:02:52.322Z,27.03
2023-08-14T18:05:20.490Z,26.83
2023-08-14T18:07:48.806Z,26.62
2023-08-14T18:10:16.842Z,26.42
2023-08-14T18:12:46.676Z,26.22
2023-08-14T18:15:14.780Z,26.03
2023-08-14T18:17:42.865Z,25.84
2023-08-14T18:20:11.864Z,25.66
2023-08-14T18:22:40.258Z,25.44
2023-08-14T18:25:08.647Z,25.24
2023-08-14T18:27:36.999Z,25.04
2023-08-14T18:30:05.500Z,24.85
2023-08-14T18:32:33.409Z,24.70
2023-08-14T18:35:01.297Z,24.55
2023-08-14T18:37:29.169Z,24.40
2023-08-14T18:39:57.211Z,24.25
2023-08-14T18:42:25.600Z,24.12
2023-08-14T18:44:53.530Z,23.98
2023-08-14T18:47:21.450Z,23.85
2023-08-14T18:49:49.406Z,23.71
2023-08-14T18:52:17.393Z,23.56
2023-08-14T18:54:48.792Z,23.43
2023-08-14T18:57:17.425Z,23.28
2023-08-14T18:59:47.884Z,23.15
2023-08-14T19:04:42.286Z,22.96
2023-08-14T19:07:12.215Z,22.83
2023-08-14T19:09:41.217Z,22.73
2023-08-14T19:12:09.323Z,22.63
2023-08-14T19:14:37.792Z,22.55
2023-08-14T19:17:06.146Z,22.46
2023-08-14T19:19:34.725Z,22.37
2023-08-14T19:22:03.003Z,22.29
2023-08-14T19:24:31.170Z,22.24
2023-08-14T19:26:59.076Z,22.18
2023-08-14T19:29:27.033Z,22.12
2023-08-14T19:31:55.011Z,22.06
2023-08-14T19:34:23.011Z,21.98
2023-08-14T19:36:51.204Z,21.92
2023-08-14T19:39:19.273Z,21.86
2023-08-14T19:41:50.816Z,21.78
2023-08-14T19:44:18.930Z,21.69
2023-08-14T19:46:47.047Z,21.60
2023-08-14T19:49:15.278Z,21.52
2023-08-14T19:51:43.559Z,21.45
2023-08-14T19:54:11.486Z,21.39
2023-08-14T19:56:39.693Z,21.34
2023-08-14T19:59:09.116Z,21.29
2023-08-14T20:01:37.924Z,21.23
2023-08-14T20:04:07.047Z,21.18
2023-08-14T20:06:35.386Z,21.14
2023-08-14T20:09:03.573Z,21.09
2023-08-14T20:11:31.909Z,21.05
2023-08-14T20:14:01.087Z,21.01
2023-08-14T20:16:29.512Z,20.97
2023-08-14T20:18:57.580Z,20.92
2023-08-14T20:21:25.760Z,20.87
2023-08-14T20:23:53.696Z,20.82
2023-08-14T20:26:21.767Z,20.78
2023-08-14T20:28:50.206Z,20.74
2023-08-14T20:31:19.711Z,20.71
2023-08-14T20:33:47.956Z,20.69
2023-08-14T20:36:20.334Z,20.66
2023-08-14T20:38:49.505Z,20.63
2023-08-14T20:41:18.188Z,20.59
2023-08-14T20:43:46.236Z,20.55
2023-08-14T20:46:15.279Z,20.51
2023-08-14T20:48:43.300Z,20.50
2023-08-14T20:51:11.576Z,20.48
2023-08-14T20:53:40.855Z,20.45
2023-08-14T20:56:08.966Z,20.44
2023-08-14T20:58:37.272Z,20.40
2023-08-14T21:01:05.963Z,20.35
2023-08-14T21:03:34.048Z,20.30
2023-08-14T21:06:02.227Z,20.27
2023-08-14T21:08:30.441Z,20.27
2023-08-14T21:11:00.728Z,20.26
2023-08-14T21:13:30.512Z,20.22
2023-08-14T21:15:59.525Z,20.17
2023-08-14T21:18:27.556Z,20.17
2023-08-14T21:20:55.691Z,20.14
2023-08-14T21:23:23.703Z,20.10
2023-08-14T21:25:51.657Z,20.07
2023-08-14T21:28:19.764Z,20.04
2023-08-14T21:30:47.956Z,20.01
2023-08-14T21:33:16.039Z,19.99
2023-08-14T21:35:46.895Z,19.96
2023-08-14T21:38:14.900Z,19.95
2023-08-14T21:40:42.954Z,19.94
2023-08-14T21:43:11.127Z,19.93
2023-08-14T21:45:41.213Z,19.91
2023-08-14T21:48:09.490Z,19.87
2023-08-14T21:50:38.749Z,19.86
2023-08-14T21:53:06.962Z,19.85
2023-08-14T21:55:35.003Z,19.84
2023-08-14T21:58:03.119Z,19.83
2023-08-14T22:00:31.285Z,19.81
2023-08-14T22:02:59.375Z,19.79
2023-08-14T22:05:27.516Z,19.77
2023-08-14T22:07:57.390Z,19.75
2023-08-14T22:10:25.382Z,19.72
2023-08-14T22:12:53.408Z,19.70
2023-08-14T22:15:24.737Z,19.69
2023-08-14T22:17:58.202Z,19.69
2023-08-14T22:20:26.386Z,19.68
2023-08-14T22:22:54.239Z,19.65
2023-08-14T22:25:22.919Z,19.61
2023-08-14T22:27:51.047Z,19.60
2023-08-14T22:30:19.113Z,19.57
2023-08-14T22:32:47.101Z,19.55
2023-08-14T22:35:15.595Z,19.53
2023-08-14T22:37:43.953Z,19.51
2023-08-14T22:40:12.089Z,19.50
2023-08-14T22:42:40.894Z,19.51
2023-08-14T22:45:09.824Z,19.60
2023-08-14T22:47:39.634Z,19.72
2023-08-14T22:50:09.806Z,19.81
2023-08-14T22:52:38.068Z,19.89
2023-08-14T22:55:07.077Z,19.95
2023-08-14T22:57:35.514Z,20.02
2023-08-14T23:00:04.363Z,20.09
2023-08-14T23:02:32.246Z,20.20
2023-08-14T23:05:00.146Z,20.32
2023-08-14T23:07:28.151Z,20.41
2023-08-14T23:09:56.056Z,20.46
2023-08-14T23:12:24.364Z,20.49
2023-08-14T23:14:52.713Z,20.49
2023-08-14T23:17:20.737Z,20.49
2023-08-14T23:19:48.772Z,20.49
2023-08-14T23:22:16.791Z,20.47
2023-08-14T23:24:44.833Z,20.48
2023-08-14T23:27:12.765Z,20.48
2023-08-14T23:29:41.670Z,20.48
2023-08-14T23:32:11.940Z,20.47
2023-08-14T23:34:41.176Z,20.49
2023-08-14T23:37:09.283Z,20.51
2023-08-14T23:39:37.259Z,20.54
2023-08-14T23:42:05.729Z,20.58
2023-08-14T23:44:33.625Z,20.63
2023-08-14T23:47:03.570Z,20.68
2023-08-14T23:49:31.629Z,20.69
2023-08-14T23:51:59.506Z,20.71
2023-08-14T23:54:27.367Z,20.73
2023-08-14T23:56:55.387Z,20.74
2023-08-14T23:59:23.414Z,20.76
